sensor_id;sensor_type;location;lat;lon;timestamp;pressure;altitude;pressure_sealevel;temperature;humidity
62237;BME280;69163;48.778;2.308;2023-11-21T00:01:55;100515.12;;;17.18;41.00
62237;BME280;69163;48.778;2.308;2023-11-21T00:04:21;100515.64;;;17.19;40.95
62237;BME280;69163;48.778;2.308;2023-11-21T00:06:47;100513.79;;;17.17;40.95
62237;BME280;69163;48.778;2.308;2023-11-21T00:09:12;100514.17;;;17.17;40.92
62237;BME280;69163;48.778;2.308;2023-11-21T00:11:37;100509.36;;;17.16;40.87
62237;BME280;69163;48.778;2.308;2023-11-21T00:14:06;100508.58;;;17.14;40.85
62237;BME280;69163;48.778;2.308;2023-11-21T00:16:31;100511.67;;;17.16;40.82
62237;BME280;69163;48.778;2.308;2023-11-21T00:18:56;100513.07;;;17.37;40.81
62237;BME280;69163;48.778;2.308;2023-11-21T00:21:21;100510.86;;;17.14;40.78
62237;BME280;69163;48.778;2.308;2023-11-21T00:23:47;100510.81;;;17.14;40.73
62237;BME280;69163;48.778;2.308;2023-11-21T00:26:14;100513.55;;;17.10;40.76
62237;BME280;69163;48.778;2.308;2023-11-21T00:28:39;100516.49;;;17.59;40.74
62237;BME280;69163;48.778;2.308;2023-11-21T00:31:07;100519.92;;;17.08;40.73
62237;BME280;69163;48.778;2.308;2023-11-21T00:33:34;100521.36;;;17.54;40.76
62237;BME280;69163;48.778;2.308;2023-11-21T00:36:07;100519.45;;;17.09;40.68
62237;BME280;69163;48.778;2.308;2023-11-21T00:38:31;100519.34;;;17.09;40.65
62237;BME280;69163;48.778;2.308;2023-11-21T00:40:56;100520.58;;;17.08;40.61
62237;BME280;69163;48.778;2.308;2023-11-21T00:43:22;100518.60;;;17.08;40.62
62237;BME280;69163;48.778;2.308;2023-11-21T00:45:48;100520.95;;;17.04;40.63
62237;BME280;69163;48.778;2.308;2023-11-21T00:48:13;100519.79;;;17.27;40.62
62237;BME280;69163;48.778;2.308;2023-11-21T00:50:38;100521.83;;;17.27;40.63
62237;BME280;69163;48.778;2.308;2023-11-21T00:53:03;100517.34;;;17.27;40.58
62237;BME280;69163;48.778;2.308;2023-11-21T00:55:32;100513.45;;;17.28;40.53
62237;BME280;69163;48.778;2.308;2023-11-21T00:58:00;100511.60;;;17.28;40.54
62237;BME280;69163;48.778;2.308;2023-11-21T01:00:26;100509.38;;;17.04;40.49
62237;BME280;69163;48.778;2.308;2023-11-21T01:02:52;100511.24;;;17.50;40.51
62237;BME280;69163;48.778;2.308;2023-11-21T01:05:17;100512.86;;;17.25;40.50
62237;BME280;69163;48.778;2.308;2023-11-21T01:07:44;100512.25;;;17.23;40.51
62237;BME280;69163;48.778;2.308;2023-11-21T01:10:12;100510.38;;;16.99;40.45
62237;BME280;69163;48.778;2.308;2023-11-21T01:12:38;100511.75;;;17.03;40.37
62237;BME280;69163;48.778;2.308;2023-11-21T01:15:05;100512.23;;;17.01;40.37
62237;BME280;69163;48.778;2.308;2023-11-21T01:17:30;100516.97;;;17.02;40.34
62237;BME280;69163;48.778;2.308;2023-11-21T01:19:57;100514.93;;;17.51;40.29
62237;BME280;69163;48.778;2.308;2023-11-21T01:22:23;100521.20;;;16.97;40.34
62237;BME280;69163;48.778;2.308;2023-11-21T01:24:48;100525.27;;;16.99;40.30
62237;BME280;69163;48.778;2.308;2023-11-21T01:27:16;100529.08;;;16.99;40.30
62237;BME280;69163;48.778;2.308;2023-11-21T01:29:40;100526.37;;;16.99;40.27
62237;BME280;69163;48.778;2.308;2023-11-21T01:32:07;100527.31;;;17.00;40.24
62237;BME280;69163;48.778;2.308;2023-11-21T01:34:32;100529.73;;;17.01;40.21
62237;BME280;69163;48.778;2.308;2023-11-21T01:36:59;100531.60;;;17.04;40.13
62237;BME280;69163;48.778;2.308;2023-11-21T01:39:25;100532.79;;;17.05;40.11
62237;BME280;69163;48.778;2.308;2023-11-21T01:41:50;100532.61;;;16.97;40.13
62237;BME280;69163;48.778;2.308;2023-11-21T01:44:15;100537.76;;;16.99;40.13
62237;BME280;69163;48.778;2.308;2023-11-21T01:46:41;100539.71;;;16.96;40.18
62237;BME280;69163;48.778;2.308;2023-11-21T01:49:06;100541.11;;;16.96;40.19
62237;BME280;69163;48.778;2.308;2023-11-21T01:51:34;100541.93;;;16.96;40.23
62237;BME280;69163;48.778;2.308;2023-11-21T01:53:59;100543.58;;;17.00;40.29
62237;BME280;69163;48.778;2.308;2023-11-21T01:56:25;100544.45;;;16.98;40.41
62237;BME280;69163;48.778;2.308;2023-11-21T01:58:52;100550.02;;;17.03;40.43
62237;BME280;69163;48.778;2.308;2023-11-21T02:01:18;100550.96;;;17.23;40.43
62237;BME280;69163;48.778;2.308;2023-11-21T02:03:43;100552.11;;;17.02;40.45
62237;BME280;69163;48.778;2.308;2023-11-21T02:06:09;100553.09;;;16.98;40.43
62237;BME280;69163;48.778;2.308;2023-11-21T02:08:34;100555.66;;;16.79;40.36
62237;BME280;69163;48.778;2.308;2023-11-21T02:10:59;100554.87;;;16.78;40.35
62237;BME280;69163;48.778;2.308;2023-11-21T02:13:25;100554.59;;;16.98;40.43
62237;BME280;69163;48.778;2.308;2023-11-21T02:15:51;100552.80;;;16.98;40.38
62237;BME280;69163;48.778;2.308;2023-11-21T02:18:16;100549.55;;;16.99;40.40
62237;BME280;69163;48.778;2.308;2023-11-21T02:20:41;100548.62;;;17.46;40.39
62237;BME280;69163;48.778;2.308;2023-11-21T02:23:07;100549.12;;;17.46;40.38
62237;BME280;69163;48.778;2.308;2023-11-21T02:25:33;100550.72;;;17.02;40.31
62237;BME280;69163;48.778;2.308;2023-11-21T02:27:59;100550.83;;;17.04;40.26
62237;BME280;69163;48.778;2.308;2023-11-21T02:30:24;100547.95;;;17.00;40.27
62237;BME280;69163;48.778;2.308;2023-11-21T02:32:50;100548.80;;;17.00;40.24
62237;BME280;69163;48.778;2.308;2023-11-21T02:35:16;100554.95;;;17.49;40.26
62237;BME280;69163;48.778;2.308;2023-11-21T02:37:42;100557.12;;;17.01;40.27
62237;BME280;69163;48.778;2.308;2023-11-21T02:40:11;100559.46;;;17.24;40.26
62237;BME280;69163;48.778;2.308;2023-11-21T02:42:35;100560.08;;;17.49;40.26
62237;BME280;69163;48.778;2.308;2023-11-21T02:45:01;100564.54;;;17.01;40.26
62237;BME280;69163;48.778;2.308;2023-11-21T02:47:26;100566.91;;;17.26;40.24
62237;BME280;69163;48.778;2.308;2023-11-21T02:49:50;100559.57;;;16.99;40.25
62237;BME280;69163;48.778;2.308;2023-11-21T02:52:17;100557.21;;;16.98;40.27
62237;BME280;69163;48.778;2.308;2023-11-21T02:54:42;100559.05;;;16.97;40.22
62237;BME280;69163;48.778;2.308;2023-11-21T02:57:10;100565.22;;;17.24;40.21
62237;BME280;69163;48.778;2.308;2023-11-21T02:59:35;100569.85;;;17.22;40.28
62237;BME280;69163;48.778;2.308;2023-11-21T03:02:00;100567.53;;;16.99;40.23
62237;BME280;69163;48.778;2.308;2023-11-21T03:04:25;100566.06;;;16.98;40.20
62237;BME280;69163;48.778;2.308;2023-11-21T03:06:51;100566.65;;;16.98;40.17
62237;BME280;69163;48.778;2.308;2023-11-21T03:09:20;100566.86;;;16.94;40.23
62237;BME280;69163;48.778;2.308;2023-11-21T03:11:47;100564.40;;;17.20;40.23
62237;BME280;69163;48.778;2.308;2023-11-21T03:14:12;100565.95;;;16.97;40.90
62237;BME280;69163;48.778;2.308;2023-11-21T03:16:37;100562.39;;;16.96;42.09
62237;BME280;69163;48.778;2.308;2023-11-21T03:19:03;100560.49;;;17.23;42.55
62237;BME280;69163;48.778;2.308;2023-11-21T03:21:28;100561.45;;;17.24;42.93
62237;BME280;69163;48.778;2.308;2023-11-21T03:23:54;100565.05;;;17.02;43.38
62237;BME280;69163;48.778;2.308;2023-11-21T03:26:21;100565.24;;;17.24;43.46
62237;BME280;69163;48.778;2.308;2023-11-21T03:28:46;100570.16;;;17.05;43.50
62237;BME280;69163;48.778;2.308;2023-11-21T03:31:13;100573.77;;;17.25;43.62
62237;BME280;69163;48.778;2.308;2023-11-21T03:33:39;100576.62;;;17.02;43.59
62237;BME280;69163;48.778;2.308;2023-11-21T03:36:07;100576.25;;;17.02;43.62
62237;BME280;69163;48.778;2.308;2023-11-21T03:38:36;100576.97;;;17.07;43.56
62237;BME280;69163;48.778;2.308;2023-11-21T03:41:01;100577.23;;;16.81;43.50
62237;BME280;69163;48.778;2.308;2023-11-21T03:43:27;100579.85;;;17.26;43.45
62237;BME280;69163;48.778;2.308;2023-11-21T03:45:59;100576.41;;;17.03;43.24
62237;BME280;69163;48.778;2.308;2023-11-21T03:48:24;100576.36;;;17.02;43.16
62237;BME280;69163;48.778;2.308;2023-11-21T03:50:50;100578.99;;;17.04;43.10
62237;BME280;69163;48.778;2.308;2023-11-21T03:53:17;100582.27;;;16.78;43.06
62237;BME280;69163;48.778;2.308;2023-11-21T03:55:42;100585.09;;;16.99;43.00
62237;BME280;69163;48.778;2.308;2023-11-21T03:58:11;100585.82;;;17.01;42.92
62237;BME280;69163;48.778;2.308;2023-11-21T04:00:38;100588.86;;;17.05;42.80
62237;BME280;69163;48.778;2.308;2023-11-21T04:03:04;100590.59;;;17.06;42.76
62237;BME280;69163;48.778;2.308;2023-11-21T04:05:30;100590.34;;;17.07;42.64
62237;BME280;69163;48.778;2.308;2023-11-21T04:07:55;100589.68;;;17.07;42.52
62237;BME280;69163;48.778;2.308;2023-11-21T04:10:20;100594.78;;;17.05;42.49
62237;BME280;69163;48.778;2.308;2023-11-21T04:12:46;100595.44;;;17.05;42.46
62237;BME280;69163;48.778;2.308;2023-11-21T04:15:12;100598.19;;;17.04;42.36
62237;BME280;69163;48.778;2.308;2023-11-21T04:17:37;100602.85;;;17.00;42.33
62237;BME280;69163;48.778;2.308;2023-11-21T04:20:05;100608.80;;;17.02;42.22
62237;BME280;69163;48.778;2.308;2023-11-21T04:22:28;100617.21;;;17.05;42.19
62237;BME280;69163;48.778;2.308;2023-11-21T04:24:53;100620.05;;;17.03;42.21
62237;BME280;69163;48.778;2.308;2023-11-21T04:27:19;100622.99;;;17.03;42.12
62237;BME280;69163;48.778;2.308;2023-11-21T04:29:44;100624.11;;;17.27;42.05
62237;BME280;69163;48.778;2.308;2023-11-21T04:32:10;100628.25;;;17.22;42.03
62237;BME280;69163;48.778;2.308;2023-11-21T04:34:40;100630.91;;;16.96;42.03
62237;BME280;69163;48.778;2.308;2023-11-21T04:37:05;100633.99;;;17.40;42.03
62237;BME280;69163;48.778;2.308;2023-11-21T04:39:30;100634.40;;;16.70;41.95
62237;BME280;69163;48.778;2.308;2023-11-21T04:41:55;100634.90;;;16.96;41.90
62237;BME280;69163;48.778;2.308;2023-11-21T04:44:22;100630.81;;;16.95;41.88
62237;BME280;69163;48.778;2.308;2023-11-21T04:46:48;100629.73;;;16.95;41.82
62237;BME280;69163;48.778;2.308;2023-11-21T04:49:20;100631.87;;;16.97;41.83
62237;BME280;69163;48.778;2.308;2023-11-21T04:51:46;100630.97;;;16.97;41.78
62237;BME280;69163;48.778;2.308;2023-11-21T04:54:12;100628.42;;;16.94;41.75
62237;BME280;69163;48.778;2.308;2023-11-21T04:56:37;100624.69;;;16.96;41.67
62237;BME280;69163;48.778;2.308;2023-11-21T04:59:02;100623.01;;;16.96;41.60
62237;BME280;69163;48.778;2.308;2023-11-21T05:01:27;100625.39;;;16.95;41.62
62237;BME280;69163;48.778;2.308;2023-11-21T05:03:52;100636.33;;;16.93;41.66
62237;BME280;69163;48.778;2.308;2023-11-21T05:06:19;100639.00;;;16.91;41.59
62237;BME280;69163;48.778;2.308;2023-11-21T05:08:44;100640.77;;;16.91;41.60
62237;BME280;69163;48.778;2.308;2023-11-21T05:11:10;100644.84;;;17.42;41.55
62237;BME280;69163;48.778;2.308;2023-11-21T05:13:35;100643.06;;;16.94;41.44
62237;BME280;69163;48.778;2.308;2023-11-21T05:16:00;100646.87;;;17.41;41.45
62237;BME280;69163;48.778;2.308;2023-11-21T05:18:28;100651.34;;;16.90;41.47
62237;BME280;69163;48.778;2.308;2023-11-21T05:20:53;100652.33;;;16.90;41.43
62237;BME280;69163;48.778;2.308;2023-11-21T05:23:18;100651.02;;;16.90;41.38
62237;BME280;69163;48.778;2.308;2023-11-21T05:25:44;100654.38;;;16.88;41.41
62237;BME280;69163;48.778;2.308;2023-11-21T05:28:09;100650.25;;;17.12;41.40
62237;BME280;69163;48.778;2.308;2023-11-21T05:30:35;100647.50;;;16.90;41.37
62237;BME280;69163;48.778;2.308;2023-11-21T05:33:01;100656.38;;;17.36;41.33
62237;BME280;69163;48.778;2.308;2023-11-21T05:35:26;100660.24;;;16.89;41.31
62237;BME280;69163;48.778;2.308;2023-11-21T05:37:51;100660.46;;;16.90;41.25
62237;BME280;69163;48.778;2.308;2023-11-21T05:40:16;100661.87;;;16.92;41.18
62237;BME280;69163;48.778;2.308;2023-11-21T05:42:42;100669.18;;;16.90;41.22
62237;BME280;69163;48.778;2.308;2023-11-21T05:45:09;100674.08;;;16.90;41.19
62237;BME280;69163;48.778;2.308;2023-11-21T05:47:33;100674.14;;;17.11;41.21
62237;BME280;69163;48.778;2.308;2023-11-21T05:49:59;100679.28;;;16.89;41.16
62237;BME280;69163;48.778;2.308;2023-11-21T05:52:24;100677.23;;;16.84;41.20
62237;BME280;69163;48.778;2.308;2023-11-21T05:54:49;100677.98;;;16.85;41.17
62237;BME280;69163;48.778;2.308;2023-11-21T05:57:14;100679.38;;;17.35;41.13
62237;BME280;69163;48.778;2.308;2023-11-21T05:59:40;100677.63;;;16.83;41.13
62237;BME280;69163;48.778;2.308;2023-11-21T06:02:06;100682.71;;;17.34;41.08
62237;BME280;69163;48.778;2.308;2023-11-21T06:04:31;100683.07;;;16.84;41.09
62237;BME280;69163;48.778;2.308;2023-11-21T06:06:56;100685.69;;;16.88;41.02
62237;BME280;69163;48.778;2.308;2023-11-21T06:09:22;100688.48;;;16.64;41.00
62237;BME280;69163;48.778;2.308;2023-11-21T06:11:48;100691.76;;;16.85;41.04
62237;BME280;69163;48.778;2.308;2023-11-21T06:14:14;100693.03;;;16.86;40.99
62237;BME280;69163;48.778;2.308;2023-11-21T06:16:39;100692.20;;;17.05;41.00
62237;BME280;69163;48.778;2.308;2023-11-21T06:19:04;100691.35;;;16.82;41.01
62237;BME280;69163;48.778;2.308;2023-11-21T06:21:33;100696.70;;;17.07;41.01
62237;BME280;69163;48.778;2.308;2023-11-21T06:23:59;100699.36;;;16.85;40.96
62237;BME280;69163;48.778;2.308;2023-11-21T06:26:25;100702.93;;;16.81;40.98
62237;BME280;69163;48.778;2.308;2023-11-21T06:28:56;100701.79;;;17.30;40.96
62237;BME280;69163;48.778;2.308;2023-11-21T06:31:23;100702.87;;;17.08;40.93
62237;BME280;69163;48.778;2.308;2023-11-21T06:33:49;100704.60;;;17.12;40.84
62237;BME280;69163;48.778;2.308;2023-11-21T06:36:15;100704.36;;;17.35;40.84
62237;BME280;69163;48.778;2.308;2023-11-21T06:38:40;100708.18;;;17.10;40.84
62237;BME280;69163;48.778;2.308;2023-11-21T06:41:06;100707.99;;;16.85;40.86
62237;BME280;69163;48.778;2.308;2023-11-21T06:43:32;100709.15;;;16.84;40.86
62237;BME280;69163;48.778;2.308;2023-11-21T06:45:57;100709.34;;;16.82;40.88
62237;BME280;69163;48.778;2.308;2023-11-21T06:48:22;100711.86;;;16.82;40.90
62237;BME280;69163;48.778;2.308;2023-11-21T06:50:48;100714.04;;;17.03;40.93
62237;BME280;69163;48.778;2.308;2023-11-21T06:53:14;100714.37;;;17.26;40.94
62237;BME280;69163;48.778;2.308;2023-11-21T06:55:40;100717.50;;;17.05;40.93
62237;BME280;69163;48.778;2.308;2023-11-21T06:58:05;100723.21;;;16.86;40.81
62237;BME280;69163;48.778;2.308;2023-11-21T07:00:31;100722.19;;;17.31;40.82
62237;BME280;69163;48.778;2.308;2023-11-21T07:02:56;100723.66;;;17.08;40.80
62237;BME280;69163;48.778;2.308;2023-11-21T07:05:22;100724.52;;;16.81;40.82
62237;BME280;69163;48.778;2.308;2023-11-21T07:07:48;100728.24;;;16.56;40.80
62237;BME280;69163;48.778;2.308;2023-11-21T07:10:13;100732.15;;;16.80;40.80
62237;BME280;69163;48.778;2.308;2023-11-21T07:12:39;100731.30;;;16.79;40.80
62237;BME280;69163;48.778;2.308;2023-11-21T07:15:10;100733.35;;;17.29;40.81
62237;BME280;69163;48.778;2.308;2023-11-21T07:17:34;100736.22;;;17.05;41.65
62237;BME280;69163;48.778;2.308;2023-11-21T07:19:59;100742.35;;;17.32;42.35
62237;BME280;69163;48.778;2.308;2023-11-21T07:22:27;100748.70;;;16.85;42.60
62237;BME280;69163;48.778;2.308;2023-11-21T07:24:52;100755.82;;;17.33;42.88
62237;BME280;69163;48.778;2.308;2023-11-21T07:27:17;100760.73;;;16.84;43.16
62237;BME280;69163;48.778;2.308;2023-11-21T07:29:43;100760.05;;;16.79;43.40
62237;BME280;69163;48.778;2.308;2023-11-21T07:32:09;100767.07;;;16.86;43.58
62237;BME280;69163;48.778;2.308;2023-11-21T07:34:35;100766.90;;;17.08;43.46
62237;BME280;69163;48.778;2.308;2023-11-21T07:37:00;100769.10;;;16.86;43.51
62237;BME280;69163;48.778;2.308;2023-11-21T07:39:26;100772.45;;;16.88;43.58
62237;BME280;69163;48.778;2.308;2023-11-21T07:41:52;100773.50;;;17.37;43.55
62237;BME280;69163;48.778;2.308;2023-11-21T07:44:20;100779.74;;;17.36;43.64
62237;BME280;69163;48.778;2.308;2023-11-21T07:46:46;100780.67;;;16.86;43.63
62237;BME280;69163;48.778;2.308;2023-11-21T07:49:14;100783.09;;;17.36;44.06
62237;BME280;69163;48.778;2.308;2023-11-21T07:51:38;100787.45;;;16.91;44.06
62237;BME280;69163;48.778;2.308;2023-11-21T07:54:03;100787.50;;;16.60;44.55
62237;BME280;69163;48.778;2.308;2023-11-21T07:56:29;100790.35;;;16.90;44.37
62237;BME280;69163;48.778;2.308;2023-11-21T07:58:55;100794.59;;;16.69;44.20
62237;BME280;69163;48.778;2.308;2023-11-21T08:01:20;100798.58;;;16.92;44.22
62237;BME280;69163;48.778;2.308;2023-11-21T08:03:49;100794.46;;;15.59;40.80
62237;BME280;69163;48.778;2.308;2023-11-21T08:06:16;100790.88;;;14.91;42.81
62237;BME280;69163;48.778;2.308;2023-11-21T08:08:40;100796.43;;;13.18;44.79
62237;BME280;69163;48.778;2.308;2023-11-21T08:11:07;100797.29;;;12.43;46.67
62237;BME280;69163;48.778;2.308;2023-11-21T08:13:32;100796.34;;;12.17;48.17
62237;BME280;69163;48.778;2.308;2023-11-21T08:15:58;100803.15;;;11.66;48.87
62237;BME280;69163;48.778;2.308;2023-11-21T08:18:26;100809.41;;;12.68;48.16
62237;BME280;69163;48.778;2.308;2023-11-21T08:20:58;100812.79;;;13.22;47.07
62237;BME280;69163;48.778;2.308;2023-11-21T08:23:24;100812.82;;;13.61;45.72
62237;BME280;69163;48.778;2.308;2023-11-21T08:25:50;100815.90;;;14.77;44.68
62237;BME280;69163;48.778;2.308;2023-11-21T08:28:15;100817.95;;;14.84;43.88
62237;BME280;69163;48.778;2.308;2023-11-21T08:30:41;100817.94;;;15.01;43.39
62237;BME280;69163;48.778;2.308;2023-11-21T08:33:06;100821.87;;;15.79;42.95
62237;BME280;69163;48.778;2.308;2023-11-21T08:35:33;100821.74;;;15.82;42.61
62237;BME280;69163;48.778;2.308;2023-11-21T08:37:59;100822.05;;;16.03;42.42
62237;BME280;69163;48.778;2.308;2023-11-21T08:40:24;100826.28;;;15.71;42.22
62237;BME280;69163;48.778;2.308;2023-11-21T08:42:49;100830.29;;;15.84;42.12
62237;BME280;69163;48.778;2.308;2023-11-21T08:45:15;100828.57;;;15.93;42.05
62237;BME280;69163;48.778;2.308;2023-11-21T08:47:40;100824.98;;;16.23;42.02
62237;BME280;69163;48.778;2.308;2023-11-21T08:50:06;100831.34;;;16.31;41.97
62237;BME280;69163;48.778;2.308;2023-11-21T08:52:31;100836.90;;;16.14;41.90
62237;BME280;69163;48.778;2.308;2023-11-21T08:54:56;100844.46;;;16.67;41.89
62237;BME280;69163;48.778;2.308;2023-11-21T08:57:22;100840.09;;;16.24;41.84
62237;BME280;69163;48.778;2.308;2023-11-21T08:59:48;100837.51;;;16.30;41.82
62237;BME280;69163;48.778;2.308;2023-11-21T09:02:14;100837.93;;;16.35;41.78
62237;BME280;69163;48.778;2.308;2023-11-21T09:04:43;100847.02;;;16.39;41.78
62237;BME280;69163;48.778;2.308;2023-11-21T09:07:09;100854.15;;;16.42;41.78
62237;BME280;69163;48.778;2.308;2023-11-21T09:09:37;100857.46;;;16.69;41.77
62237;BME280;69163;48.778;2.308;2023-11-21T09:12:05;100861.55;;;16.26;41.77
62237;BME280;69163;48.778;2.308;2023-11-21T09:14:31;100859.83;;;16.27;41.77
62237;BME280;69163;48.778;2.308;2023-11-21T09:16:57;100861.17;;;16.47;41.87
62237;BME280;69163;48.778;2.308;2023-11-21T09:19:21;100865.84;;;16.52;41.84
62237;BME280;69163;48.778;2.308;2023-11-21T09:21:47;100863.90;;;16.54;41.81
62237;BME280;69163;48.778;2.308;2023-11-21T09:24:13;100864.58;;;16.57;41.77
62237;BME280;69163;48.778;2.308;2023-11-21T09:26:39;100868.41;;;16.60;41.72
62237;BME280;69163;48.778;2.308;2023-11-21T09:29:04;100865.34;;;16.13;41.71
62237;BME280;69163;48.778;2.308;2023-11-21T09:31:30;100866.18;;;16.38;41.69
62237;BME280;69163;48.778;2.308;2023-11-21T09:33:55;100872.63;;;16.60;41.75
62237;BME280;69163;48.778;2.308;2023-11-21T09:36:21;100872.11;;;16.38;41.73
62237;BME280;69163;48.778;2.308;2023-11-21T09:38:48;100873.48;;;16.66;41.68
62237;BME280;69163;48.778;2.308;2023-11-21T09:41:21;100873.92;;;16.67;41.67
62237;BME280;69163;48.778;2.308;2023-11-21T09:43:39;100877.98;;;16.93;41.65
62237;BME280;69163;48.778;2.308;2023-11-21T09:46:06;100886.22;;;16.71;41.64
62237;BME280;69163;48.778;2.308;2023-11-21T09:48:30;100887.61;;;16.50;41.57
62237;BME280;69163;48.778;2.308;2023-11-21T09:50:58;100887.91;;;16.73;41.57
62237;BME280;69163;48.778;2.308;2023-11-21T09:53:22;100891.51;;;16.75;41.55
62237;BME280;69163;48.778;2.308;2023-11-21T09:55:49;100897.27;;;16.58;41.47
62237;BME280;69163;48.778;2.308;2023-11-21T09:58:21;100898.31;;;16.78;41.46
62237;BME280;69163;48.778;2.308;2023-11-21T10:00:47;100898.74;;;16.82;41.41
62237;BME280;69163;48.778;2.308;2023-11-21T10:03:12;100901.05;;;16.57;41.40
62237;BME280;69163;48.778;2.308;2023-11-21T10:05:38;100903.28;;;16.54;41.44
62237;BME280;69163;48.778;2.308;2023-11-21T10:08:07;100908.49;;;16.79;41.41
62237;BME280;69163;48.778;2.308;2023-11-21T10:10:31;100910.44;;;16.75;41.46
62237;BME280;69163;48.778;2.308;2023-11-21T10:12:56;100911.55;;;16.73;41.60
62237;BME280;69163;48.778;2.308;2023-11-21T10:15:22;100917.47;;;16.35;41.57
62237;BME280;69163;48.778;2.308;2023-11-21T10:17:46;100920.37;;;16.42;41.32
62237;BME280;69163;48.778;2.308;2023-11-21T10:20:12;100927.65;;;16.94;41.25
62237;BME280;69163;48.778;2.308;2023-11-21T10:22:37;100930.48;;;16.70;41.23
62237;BME280;69163;48.778;2.308;2023-11-21T10:25:03;100933.88;;;16.72;41.17
62237;BME280;69163;48.778;2.308;2023-11-21T10:27:28;100941.71;;;16.73;41.17
62237;BME280;69163;48.778;2.308;2023-11-21T10:29:53;100944.11;;;16.49;41.20
62237;BME280;69163;48.778;2.308;2023-11-21T10:32:18;100945.97;;;16.73;41.17
62237;BME280;69163;48.778;2.308;2023-11-21T10:37:13;100947.57;;;16.97;41.17
62237;BME280;69163;48.778;2.308;2023-11-21T10:39:36;100947.54;;;16.75;41.14
62237;BME280;69163;48.778;2.308;2023-11-21T10:42:01;100947.31;;;16.78;41.09
62237;BME280;69163;48.778;2.308;2023-11-21T10:44:29;100944.51;;;16.77;41.11
62237;BME280;69163;48.778;2.308;2023-11-21T10:46:55;100945.18;;;17.01;41.12
62237;BME280;69163;48.778;2.308;2023-11-21T10:49:21;100945.31;;;16.53;41.13
62237;BME280;69163;48.778;2.308;2023-11-21T10:51:46;100949.28;;;16.54;41.13
62237;BME280;69163;48.778;2.308;2023-11-21T10:54:18;100947.08;;;16.56;41.09
62237;BME280;69163;48.778;2.308;2023-11-21T10:56:41;100952.93;;;16.80;41.07
62237;BME280;69163;48.778;2.308;2023-11-21T10:59:09;100953.97;;;17.05;41.05
62237;BME280;69163;48.778;2.308;2023-11-21T11:01:36;100955.67;;;16.78;41.13
62237;BME280;69163;48.778;2.308;2023-11-21T11:04:06;100955.97;;;17.03;41.12
62237;BME280;69163;48.778;2.308;2023-11-21T11:06:33;100958.28;;;17.27;41.12
62237;BME280;69163;48.778;2.308;2023-11-21T11:08:59;100959.46;;;17.05;41.09
62237;BME280;69163;48.778;2.308;2023-11-21T11:11:25;100957.44;;;17.06;41.06
62237;BME280;69163;48.778;2.308;2023-11-21T11:13:49;100953.08;;;17.04;41.09
62237;BME280;69163;48.778;2.308;2023-11-21T11:16:15;100953.00;;;16.81;41.09
62237;BME280;69163;48.778;2.308;2023-11-21T11:18:39;100946.26;;;16.58;41.10
62237;BME280;69163;48.778;2.308;2023-11-21T11:21:10;100943.54;;;17.08;41.07
62237;BME280;69163;48.778;2.308;2023-11-21T11:23:43;100946.46;;;16.89;41.08
62237;BME280;69163;48.778;2.308;2023-11-21T11:26:07;100947.29;;;17.10;41.37
62237;BME280;69163;48.778;2.308;2023-11-21T11:28:31;100952.90;;;17.10;41.47
62237;BME280;69163;48.778;2.308;2023-11-21T11:31:10;100953.80;;;17.10;41.54
62237;BME280;69163;48.778;2.308;2023-11-21T11:33:27;100956.45;;;17.11;41.59
62237;BME280;69163;48.778;2.308;2023-11-21T11:35:54;100957.48;;;16.67;41.60
62237;BME280;69163;48.778;2.308;2023-11-21T11:38:13;100955.69;;;17.15;41.67
62237;BME280;69163;48.778;2.308;2023-11-21T11:40:40;100962.02;;;16.72;41.65
62237;BME280;69163;48.778;2.308;2023-11-21T11:43:06;100961.68;;;16.74;41.66
62237;BME280;69163;48.778;2.308;2023-11-21T11:45:33;100962.77;;;16.92;41.76
62237;BME280;69163;48.778;2.308;2023-11-21T11:47:57;100958.96;;;17.12;41.88
62237;BME280;69163;48.778;2.308;2023-11-21T11:50:20;100959.39;;;16.90;41.91
62237;BME280;69163;48.778;2.308;2023-11-21T11:52:46;100962.60;;;16.66;41.98
62237;BME280;69163;48.778;2.308;2023-11-21T11:55:12;100961.82;;;17.11;41.99
62237;BME280;69163;48.778;2.308;2023-11-21T11:57:37;100961.41;;;16.90;41.99
62237;BME280;69163;48.778;2.308;2023-11-21T12:00:13;100960.80;;;17.13;42.00
62237;BME280;69163;48.778;2.308;2023-11-21T12:02:29;100961.10;;;17.20;41.96
62237;BME280;69163;48.778;2.308;2023-11-21T12:04:56;100959.44;;;16.69;42.03
62237;BME280;69163;48.778;2.308;2023-11-21T12:07:20;100960.77;;;16.94;42.04
62237;BME280;69163;48.778;2.308;2023-11-21T12:09:46;100961.96;;;16.93;42.09
62237;BME280;69163;48.778;2.308;2023-11-21T12:12:13;100964.87;;;16.70;42.11
62237;BME280;69163;48.778;2.308;2023-11-21T12:14:37;100970.07;;;17.19;42.08
62237;BME280;69163;48.778;2.308;2023-11-21T12:17:06;100968.14;;;17.17;42.11
62237;BME280;69163;48.778;2.308;2023-11-21T12:19:28;100969.81;;;16.70;42.07
62237;BME280;69163;48.778;2.308;2023-11-21T12:21:53;100973.57;;;16.96;41.91
62237;BME280;69163;48.778;2.308;2023-11-21T12:24:19;100970.79;;;16.72;41.85
62237;BME280;69163;48.778;2.308;2023-11-21T12:26:44;100971.01;;;16.98;41.78
62237;BME280;69163;48.778;2.308;2023-11-21T12:29:10;100970.66;;;17.22;41.72
62237;BME280;69163;48.778;2.308;2023-11-21T12:31:40;100973.95;;;17.20;41.77
62237;BME280;69163;48.778;2.308;2023-11-21T12:34:05;100980.78;;;17.25;41.70
62237;BME280;69163;48.778;2.308;2023-11-21T12:36:30;100979.51;;;16.98;41.74
62237;BME280;69163;48.778;2.308;2023-11-21T12:38:59;100980.08;;;16.74;41.75
62237;BME280;69163;48.778;2.308;2023-11-21T12:41:24;100984.05;;;17.25;41.67
62237;BME280;69163;48.778;2.308;2023-11-21T12:43:49;100985.94;;;16.71;41.74
62237;BME280;69163;48.778;2.308;2023-11-21T12:46:16;100991.11;;;16.98;41.74